Terminal Aerodrome Forecast
Issued by NWS

Home | Current Version | Previous Version | Text Only | Print | Product List | Glossary On
Versions: 1 2 3 4 5 6 7 8 9 10 11 12 13 14 15 16 17 18 19 20 21 22 23 24 25 26 27 28 29 30
000
FTUS45 KLKN 211100
TAFELY
TAF
KELY 211120Z 2112/2212 19006KT P6SM -SHRA SCT030 OVC080
      TEMPO 2112/2116 VRB15G28KT 5SM TSRA SCT020 BKN040CB
     FM211600 19012G22KT P6SM -TSRA BKN060CB
      TEMPO 2118/2122 5SM TSRA SCT030CB BKN040=

USA.gov is the U.S. government's official web portal to all federal, state and local government web resources and services.